createdAt,value
2022-12-18T00:01:18.338Z,112.57
2022-12-18T00:03:46.060Z,123.35
2022-12-18T00:06:15.529Z,100.97
2022-12-18T00:08:43.000Z,108.60
2022-12-18T00:11:12.386Z,112.93
2022-12-18T00:13:40.082Z,106.22
2022-12-18T00:16:09.139Z,120.13
2022-12-18T00:18:36.134Z,110.20
2022-12-18T00:21:04.978Z,113.07
2022-12-18T00:23:32.041Z,109.53
2022-12-18T00:26:01.182Z,96.38
2022-12-18T00:28:27.899Z,98.95
2022-12-18T00:31:08.229Z,99.95
2022-12-18T00:33:35.639Z,93.53
2022-12-18T00:36:08.525Z,91.18
2022-12-18T00:38:35.114Z,98.05
2022-12-18T00:41:01.862Z,109.50
2022-12-18T00:43:28.513Z,106.70
2022-12-18T00:45:55.362Z,95.18
2022-12-18T00:48:22.388Z,94.43
2022-12-18T00:50:50.331Z,105.05
2022-12-18T00:53:17.417Z,100.78
2022-12-18T00:55:44.144Z,106.03
2022-12-18T00:58:11.582Z,100.25
2022-12-18T01:00:39.054Z,107.60
2022-12-18T01:03:06.315Z,98.40
2022-12-18T01:05:33.419Z,99.95
2022-12-18T01:08:00.299Z,101.07
2022-12-18T01:10:26.927Z,96.55
2022-12-18T01:12:57.508Z,99.55
2022-12-18T01:15:24.067Z,109.78
2022-12-18T01:17:53.481Z,103.68
2022-12-18T01:20:20.440Z,98.28
2022-12-18T01:22:47.376Z,103.07
2022-12-18T01:25:13.923Z,111.05
2022-12-18T01:27:40.523Z,105.53
2022-12-18T01:30:07.784Z,106.35
2022-12-18T01:32:34.586Z,94.82
2022-12-18T01:35:02.522Z,95.95
2022-12-18T01:37:29.093Z,96.63
2022-12-18T01:39:56.503Z,102.82
2022-12-18T01:42:23.117Z,108.95
2022-12-18T01:45:25.977Z,105.97
2022-12-18T01:47:58.414Z,104.03
2022-12-18T01:50:30.204Z,96.88
2022-12-18T01:53:00.374Z,105.47
2022-12-18T01:55:29.637Z,112.80
2022-12-18T01:57:58.885Z,118.28
2022-12-18T02:00:27.200Z,108.93
2022-12-18T02:02:54.323Z,112.22
2022-12-18T02:05:30.901Z,128.27
2022-12-18T02:08:11.368Z,110.55
2022-12-18T02:10:59.133Z,110.90
2022-12-18T02:13:25.627Z,126.45
2022-12-18T02:16:19.212Z,102.45
2022-12-18T02:18:50.018Z,112.05
2022-12-18T02:21:45.509Z,101.32
2022-12-18T02:24:41.864Z,110.45
2022-12-18T02:27:10.267Z,106.38
2022-12-18T02:29:57.620Z,101.43
2022-12-18T02:32:31.225Z,107.40
2022-12-18T02:34:58.390Z,101.40
2022-12-18T02:37:27.811Z,100.13
2022-12-18T02:39:56.480Z,114.25
2022-12-18T02:42:24.016Z,93.60
2022-12-18T02:44:52.195Z,103.78
2022-12-18T02:47:27.776Z,106.20
2022-12-18T02:49:58.826Z,105.45
2022-12-18T02:55:40.646Z,100.20
2022-12-18T02:58:17.160Z,100.22
2022-12-18T03:00:53.863Z,94.32
2022-12-18T03:03:31.138Z,95.90
2022-12-18T03:06:03.156Z,97.45
2022-12-18T03:08:33.205Z,96.22
2022-12-18T03:11:38.698Z,94.78
2022-12-18T03:14:08.028Z,99.38
2022-12-18T03:16:35.825Z,91.35
2022-12-18T03:19:05.238Z,90.05
2022-12-18T03:21:43.968Z,91.10
2022-12-18T03:24:11.177Z,81.88
2022-12-18T03:26:42.454Z,80.47
2022-12-18T03:29:13.646Z,90.85
2022-12-18T03:31:42.162Z,99.28
2022-12-18T03:34:18.523Z,86.93
2022-12-18T03:36:47.080Z,96.57
2022-12-18T03:39:14.805Z,82.88
2022-12-18T03:41:51.116Z,83.72
2022-12-18T03:44:43.925Z,86.97
2022-12-18T03:47:15.016Z,75.70
2022-12-18T03:49:57.570Z,74.25
2022-12-18T03:52:28.896Z,82.45
2022-12-18T03:54:57.035Z,84.07
2022-12-18T03:57:26.750Z,82.03
2022-12-18T04:00:01.929Z,82.43
2022-12-18T04:02:52.021Z,80.15
2022-12-18T04:05:25.560Z,80.35
2022-12-18T04:07:53.139Z,74.75
2022-12-18T04:10:19.745Z,68.40
2022-12-18T04:12:46.881Z,76.97
2022-12-18T04:15:15.280Z,72.15
2022-12-18T04:17:48.535Z,72.07
2022-12-18T04:20:17.286Z,64.72
2022-12-18T04:22:44.950Z,72.30
2022-12-18T04:25:13.698Z,72.70
2022-12-18T04:27:49.890Z,66.65
2022-12-18T04:30:16.526Z,61.17
2022-12-18T04:32:47.741Z,61.88
2022-12-18T04:35:17.539Z,56.22
2022-12-18T04:37:44.769Z,59.13
2022-12-18T04:40:12.181Z,58.35
2022-12-18T04:42:42.636Z,56.60
2022-12-18T04:45:09.755Z,62.42
2022-12-18T04:47:36.328Z,61.05
2022-12-18T04:50:03.460Z,61.05
2022-12-18T04:52:33.381Z,60.72
2022-12-18T04:54:59.926Z,57.47
2022-12-18T04:57:27.052Z,65.40
2022-12-18T04:59:53.579Z,62.20
2022-12-18T05:02:20.371Z,59.95
2022-12-18T05:04:46.970Z,65.45
2022-12-18T05:07:13.499Z,61.88
2022-12-18T05:09:40.045Z,63.90
2022-12-18T05:12:07.745Z,59.33
2022-12-18T05:14:34.264Z,62.15
2022-12-18T05:17:01.352Z,60.67
2022-12-18T05:19:28.040Z,59.13
2022-12-18T05:21:54.596Z,58.60
2022-12-18T05:24:21.137Z,56.47
2022-12-18T05:26:47.658Z,56.78
2022-12-18T05:29:14.221Z,54.85
2022-12-18T05:31:41.123Z,43.30
2022-12-18T05:34:09.522Z,58.45
2022-12-18T05:36:37.200Z,48.20
2022-12-18T05:39:04.060Z,53.22
2022-12-18T05:41:31.042Z,54.65
2022-12-18T05:43:57.638Z,50.83
2022-12-18T05:46:25.240Z,55.22
2022-12-18T05:48:52.150Z,56.40
2022-12-18T05:51:20.901Z,51.55
2022-12-18T05:53:47.926Z,55.47
2022-12-18T05:56:16.837Z,51.00
2022-12-18T05:58:43.824Z,51.92
2022-12-18T06:01:14.298Z,52.72
2022-12-18T06:03:41.527Z,45.45
2022-12-18T06:06:23.389Z,47.47
2022-12-18T06:08:51.126Z,50.42
2022-12-18T06:11:23.155Z,48.90
2022-12-18T06:13:58.199Z,50.95
2022-12-18T06:16:25.980Z,41.05
2022-12-18T06:18:52.547Z,46.90
2022-12-18T06:21:19.429Z,45.00
2022-12-18T06:23:45.975Z,43.72
2022-12-18T06:26:13.171Z,48.25
2022-12-18T06:28:39.785Z,48.55
2022-12-18T06:31:07.167Z,41.88
2022-12-18T06:33:33.821Z,47.50
2022-12-18T06:36:12.013Z,51.78
2022-12-18T06:38:42.780Z,44.28
2022-12-18T06:41:11.639Z,42.08
2022-12-18T06:43:38.743Z,42.53
2022-12-18T06:46:06.207Z,40.53
2022-12-18T06:48:33.393Z,44.33
2022-12-18T06:51:00.430Z,49.10
2022-12-18T06:53:26.994Z,45.28
2022-12-18T06:55:53.647Z,43.83
2022-12-18T06:58:20.258Z,44.50
2022-12-18T07:00:46.881Z,43.95
2022-12-18T07:03:13.931Z,46.38
2022-12-18T07:05:41.769Z,40.55
2022-12-18T07:08:08.322Z,41.90
2022-12-18T07:10:46.117Z,43.60
2022-12-18T07:13:14.123Z,40.92
2022-12-18T07:15:41.154Z,40.00
2022-12-18T07:18:07.741Z,34.83
2022-12-18T07:20:34.303Z,44.70
2022-12-18T07:23:03.691Z,39.80
2022-12-18T07:25:30.451Z,39.63
2022-12-18T07:27:56.960Z,38.75
2022-12-18T07:30:23.510Z,44.08
2022-12-18T07:32:50.221Z,41.85
2022-12-18T07:35:19.490Z,38.80
2022-12-18T07:37:49.973Z,36.65
2022-12-18T07:40:16.558Z,37.47
2022-12-18T07:42:43.086Z,36.13
2022-12-18T07:45:10.093Z,38.83
2022-12-18T07:47:37.278Z,34.92
2022-12-18T07:50:05.602Z,33.65
2022-12-18T07:52:32.200Z,36.95
2022-12-18T07:54:59.778Z,35.30
2022-12-18T07:57:50.049Z,37.28
2022-12-18T08:00:13.449Z,35.75
2022-12-18T08:02:40.118Z,35.88
2022-12-18T08:05:07.087Z,35.35
2022-12-18T08:07:33.763Z,31.65
2022-12-18T08:10:00.316Z,39.00
2022-12-18T08:12:26.886Z,29.92
2022-12-18T08:14:53.409Z,35.67
2022-12-18T08:17:20.716Z,35.30
2022-12-18T08:19:47.271Z,30.80
2022-12-18T08:22:13.830Z,32.25
2022-12-18T08:24:40.363Z,35.60
2022-12-18T08:27:28.315Z,30.80
2022-12-18T08:29:53.682Z,27.67
2022-12-18T08:32:20.319Z,27.63
2022-12-18T08:34:46.921Z,31.83
2022-12-18T08:37:13.457Z,26.63
2022-12-18T08:39:40.030Z,27.55
2022-12-18T08:42:25.276Z,27.52
2022-12-18T08:44:51.832Z,27.65
2022-12-18T08:47:18.414Z,29.58
2022-12-18T08:49:44.968Z,29.50
2022-12-18T08:52:12.023Z,25.42
2022-12-18T08:54:41.281Z,27.55
2022-12-18T08:57:07.830Z,27.35
2022-12-18T08:59:34.390Z,24.42
2022-12-18T09:02:01.214Z,28.52
2022-12-18T09:04:27.985Z,25.17
2022-12-18T09:06:57.468Z,35.28
2022-12-18T09:09:24.017Z,27.77
2022-12-18T09:11:50.529Z,30.05
2022-12-18T09:14:17.058Z,25.83
2022-12-18T09:16:43.771Z,24.60
2022-12-18T09:19:10.692Z,24.50
2022-12-18T09:21:44.816Z,20.08
2022-12-18T09:24:14.999Z,25.60
2022-12-18T09:26:41.616Z,21.75
2022-12-18T09:29:11.542Z,19.95
2022-12-18T09:31:39.329Z,22.42
2022-12-18T09:34:05.942Z,20.40
2022-12-18T09:36:32.516Z,18.83
2022-12-18T09:39:03.769Z,20.73
2022-12-18T09:41:46.832Z,15.88
2022-12-18T09:44:24.000Z,18.17
2022-12-18T09:47:17.091Z,18.38
2022-12-18T09:49:46.564Z,17.70
2022-12-18T09:52:16.518Z,19.83
2022-12-18T09:54:44.614Z,21.63
2022-12-18T09:57:16.527Z,16.65
2022-12-18T09:59:45.254Z,18.60
2022-12-18T10:02:15.232Z,19.83
2022-12-18T10:04:41.951Z,16.65
2022-12-18T10:07:25.177Z,16.05
2022-12-18T10:10:06.126Z,14.25
2022-12-18T10:12:45.991Z,15.98
2022-12-18T10:15:25.661Z,13.82
2022-12-18T10:18:18.783Z,15.70
2022-12-18T10:20:58.726Z,13.45
2022-12-18T10:23:35.193Z,14.40
2022-12-18T10:26:10.772Z,14.13
2022-12-18T10:28:40.226Z,14.48
2022-12-18T10:31:33.424Z,14.23
2022-12-18T10:34:00.034Z,17.48
2022-12-18T10:36:26.552Z,14.68
2022-12-18T10:38:53.120Z,14.57
2022-12-18T10:41:20.022Z,12.13
2022-12-18T10:43:48.988Z,13.88
2022-12-18T10:46:18.402Z,14.23
2022-12-18T10:48:48.050Z,11.00
2022-12-18T10:51:40.938Z,11.35
2022-12-18T10:54:15.610Z,10.68
2022-12-18T10:56:42.792Z,11.27
2022-12-18T10:59:13.342Z,11.48
2022-12-18T11:01:57.602Z,13.32
2022-12-18T11:04:26.727Z,10.63
2022-12-18T11:07:11.998Z,11.02
2022-12-18T11:09:41.559Z,9.43
2022-12-18T11:12:18.541Z,9.77
2022-12-18T11:14:56.969Z,11.63
2022-12-18T11:17:30.465Z,8.45
2022-12-18T11:19:59.175Z,9.18
2022-12-18T11:22:27.552Z,8.90
2022-12-18T11:25:30.836Z,10.70
2022-12-18T11:27:59.035Z,9.38
2022-12-18T11:30:34.665Z,9.25
2022-12-18T11:33:06.051Z,8.32
2022-12-18T11:35:51.739Z,8.48
2022-12-18T11:38:24.966Z,10.45
2022-12-18T11:40:57.454Z,8.35
2022-12-18T11:43:56.886Z,11.18
2022-12-18T11:46:34.817Z,9.52
2022-12-18T11:49:14.385Z,10.30
2022-12-18T11:52:04.468Z,10.15
2022-12-18T11:54:31.016Z,9.10
2022-12-18T11:57:05.846Z,10.65
2022-12-18T11:59:49.354Z,9.38
2022-12-18T12:02:43.976Z,10.38
2022-12-18T12:05:22.796Z,12.82
2022-12-18T12:08:18.316Z,11.90
2022-12-18T12:11:03.233Z,7.65
2022-12-18T12:13:44.618Z,14.18
2022-12-18T12:16:47.956Z,10.63
2022-12-18T12:19:33.591Z,9.25
2022-12-18T12:22:10.751Z,10.70
2022-12-18T12:24:55.418Z,12.27
2022-12-18T12:27:37.427Z,9.18
2022-12-18T12:30:22.509Z,14.55
2022-12-18T12:33:02.638Z,9.27
2022-12-18T12:35:59.838Z,10.00
2022-12-18T12:38:32.905Z,10.60
2022-12-18T12:41:27.836Z,10.10
2022-12-18T12:43:57.365Z,11.57
2022-12-18T12:46:25.046Z,10.63
2022-12-18T12:48:58.055Z,11.00
2022-12-18T12:51:27.592Z,11.32
2022-12-18T12:53:55.991Z,10.82
2022-12-18T12:56:23.317Z,12.60
2022-12-18T12:59:19.314Z,9.60
2022-12-18T13:01:53.390Z,11.38
2022-12-18T13:04:43.579Z,12.73
2022-12-18T13:07:15.407Z,11.65
2022-12-18T13:10:13.202Z,10.02
2022-12-18T13:12:58.757Z,12.80
2022-12-18T13:15:44.772Z,11.30
2022-12-18T13:18:21.701Z,11.13
2022-12-18T13:21:03.936Z,12.88
2022-12-18T13:23:37.584Z,10.40
2022-12-18T13:28:33.577Z,12.27
2022-12-18T13:31:04.064Z,11.00
2022-12-18T13:33:30.563Z,10.85
2022-12-18T13:36:15.892Z,11.48
2022-12-18T13:38:44.479Z,10.05
2022-12-18T13:41:24.499Z,11.65
2022-12-18T13:44:12.857Z,12.05
2022-12-18T13:46:49.320Z,12.85
2022-12-18T13:49:41.333Z,12.75
2022-12-18T13:52:17.849Z,12.35
2022-12-18T13:54:48.526Z,11.00
2022-12-18T13:57:41.817Z,15.10
2022-12-18T14:00:29.412Z,14.70
2022-12-18T14:02:57.303Z,14.60
2022-12-18T14:05:27.051Z,12.38
2022-12-18T14:07:54.612Z,14.13
2022-12-18T14:13:10.944Z,12.30
2022-12-18T14:15:44.482Z,14.43
2022-12-18T14:18:26.541Z,12.63
2022-12-18T14:20:56.182Z,18.02
2022-12-18T14:23:38.936Z,14.13
2022-12-18T14:26:30.206Z,14.70
2022-12-18T14:28:59.514Z,13.57
2022-12-18T14:31:28.043Z,12.60
2022-12-18T14:33:54.679Z,11.80
2022-12-18T14:36:24.143Z,14.00
2022-12-18T14:38:54.167Z,13.02
2022-12-18T14:41:21.870Z,15.88
2022-12-18T14:43:50.525Z,15.10
2022-12-18T14:46:36.703Z,17.70
2022-12-18T14:49:22.094Z,17.42
2022-12-18T14:51:54.117Z,15.32
2022-12-18T14:54:21.332Z,14.13
2022-12-18T14:56:55.429Z,14.65
2022-12-18T14:59:26.521Z,16.80
2022-12-18T15:02:16.336Z,15.18
2022-12-18T15:04:44.938Z,15.07
2022-12-18T15:07:11.580Z,15.80
2022-12-18T15:09:39.578Z,15.40
2022-12-18T15:12:06.545Z,16.77
2022-12-18T15:14:42.714Z,14.02
2022-12-18T15:17:19.988Z,14.52
2022-12-18T15:19:47.416Z,16.80
2022-12-18T15:22:36.083Z,15.48
2022-12-18T15:25:04.861Z,16.35
2022-12-18T15:27:36.822Z,14.32
2022-12-18T15:30:09.352Z,15.93
2022-12-18T15:32:37.453Z,16.83
2022-12-18T15:35:14.772Z,17.33
2022-12-18T15:37:41.755Z,15.00
2022-12-18T15:40:13.605Z,17.75
2022-12-18T15:42:58.705Z,17.20
2022-12-18T15:45:25.269Z,17.05
2022-12-18T15:47:51.835Z,17.30
2022-12-18T15:50:18.353Z,15.57
2022-12-18T15:52:50.710Z,17.90
2022-12-18T15:55:38.326Z,19.23
2022-12-18T15:58:07.322Z,16.45
2022-12-18T16:00:35.183Z,16.90
2022-12-18T16:03:02.155Z,17.38
2022-12-18T16:05:29.577Z,19.95
2022-12-18T16:07:56.333Z,17.02
2022-12-18T16:10:23.170Z,17.02
2022-12-18T16:12:49.682Z,19.17
2022-12-18T16:15:22.477Z,19.23
2022-12-18T16:17:51.056Z,18.05
2022-12-18T16:20:23.086Z,15.63
2022-12-18T16:22:50.312Z,18.83
2022-12-18T16:25:24.165Z,18.02
2022-12-18T16:30:22.909Z,15.25
2022-12-18T16:32:49.582Z,16.92
2022-12-18T16:35:17.104Z,21.42
2022-12-18T16:37:44.352Z,17.67
2022-12-18T16:40:13.665Z,15.50
2022-12-18T16:42:41.251Z,17.98
2022-12-18T16:45:10.007Z,18.52
2022-12-18T16:47:36.653Z,17.88
2022-12-18T16:50:04.282Z,17.48
2022-12-18T16:52:30.912Z,21.02
2022-12-18T16:54:57.467Z,18.20
2022-12-18T16:57:25.541Z,16.02
2022-12-18T16:59:52.732Z,16.20
2022-12-18T17:02:25.411Z,18.70
2022-12-18T17:05:00.934Z,19.97
2022-12-18T17:07:28.717Z,16.58
2022-12-18T17:09:55.667Z,17.83
2022-12-18T17:12:22.999Z,16.95
2022-12-18T17:14:49.592Z,20.38
2022-12-18T17:17:21.251Z,22.92
2022-12-18T17:19:48.792Z,17.40
2022-12-18T17:22:15.369Z,18.35
2022-12-18T17:24:42.032Z,14.98
2022-12-18T17:27:08.915Z,16.10
2022-12-18T17:29:35.775Z,14.75
2022-12-18T17:32:02.402Z,15.25
2022-12-18T17:34:29.978Z,19.17
2022-12-18T17:36:57.260Z,16.15
2022-12-18T17:39:23.772Z,18.27
2022-12-18T17:41:50.417Z,20.77
2022-12-18T17:44:17.870Z,14.93
2022-12-18T17:46:46.123Z,16.05
2022-12-18T17:49:14.036Z,19.88
2022-12-18T17:51:42.840Z,14.60
2022-12-18T17:54:10.465Z,14.23
2022-12-18T17:56:37.040Z,14.70
2022-12-18T17:59:04.249Z,17.73
2022-12-18T18:01:30.920Z,15.70
2022-12-18T18:03:57.634Z,15.98
2022-12-18T18:06:24.355Z,16.88
2022-12-18T18:08:51.800Z,14.02
2022-12-18T18:11:55.852Z,16.45
2022-12-18T18:14:22.970Z,15.73
2022-12-18T18:16:51.118Z,18.13
2022-12-18T18:19:20.434Z,15.95
2022-12-18T18:21:48.719Z,17.30
2022-12-18T18:24:18.434Z,14.98
2022-12-18T18:26:46.689Z,16.13
2022-12-18T18:29:15.585Z,16.27
2022-12-18T18:31:42.428Z,17.42
2022-12-18T18:34:17.890Z,18.10
2022-12-18T18:36:49.020Z,21.90
2022-12-18T18:39:15.716Z,13.75
2022-12-18T18:41:43.858Z,16.40
2022-12-18T18:44:16.125Z,16.40
2022-12-18T18:46:42.695Z,19.55
2022-12-18T18:49:09.637Z,18.75
2022-12-18T18:51:36.217Z,16.88
2022-12-18T18:54:02.923Z,19.73
2022-12-18T18:59:16.656Z,18.60
2022-12-18T19:01:43.930Z,18.50
2022-12-18T19:04:10.787Z,17.33
2022-12-18T19:06:37.389Z,15.10
2022-12-18T19:09:06.518Z,19.63
2022-12-18T19:11:51.751Z,17.20
2022-12-18T19:14:18.690Z,16.83
2022-12-18T19:16:45.535Z,21.30
2022-12-18T19:19:13.365Z,17.15
2022-12-18T19:21:40.815Z,15.18
2022-12-18T19:24:07.727Z,18.33
2022-12-18T19:26:35.854Z,18.95
2022-12-18T19:29:08.274Z,20.27
2022-12-18T19:31:36.782Z,19.30
2022-12-18T19:34:07.157Z,16.13
2022-12-18T19:36:35.889Z,19.38
2022-12-18T19:39:02.979Z,17.33
2022-12-18T19:41:31.345Z,20.52
2022-12-18T19:43:59.801Z,17.10
2022-12-18T19:46:26.437Z,18.83
2022-12-18T19:48:53.641Z,18.17
2022-12-18T19:51:25.560Z,23.00
2022-12-18T19:53:58.162Z,18.48
2022-12-18T19:56:26.975Z,15.48
2022-12-18T19:58:54.423Z,19.40
2022-12-18T20:01:23.566Z,22.50
2022-12-18T20:03:53.638Z,18.70
2022-12-18T20:06:31.830Z,21.73
2022-12-18T20:09:01.308Z,22.58
2022-12-18T20:11:31.928Z,20.98
2022-12-18T20:14:01.861Z,20.65
2022-12-18T20:16:28.565Z,20.92
2022-12-18T20:18:56.297Z,23.05
2022-12-18T20:21:23.816Z,23.15
2022-12-18T20:23:50.371Z,20.15
2022-12-18T20:26:16.985Z,19.95
2022-12-18T20:28:43.609Z,22.00
2022-12-18T20:31:13.823Z,24.70
2022-12-18T20:33:41.633Z,21.42
2022-12-18T20:36:12.847Z,20.92
2022-12-18T20:38:39.589Z,23.58
2022-12-18T20:41:11.889Z,21.45
2022-12-18T20:43:39.400Z,23.10
2022-12-18T20:46:08.815Z,26.00
2022-12-18T20:48:35.621Z,26.23
2022-12-18T20:51:05.670Z,27.05
2022-12-18T20:53:33.413Z,25.95
2022-12-18T20:56:00.004Z,26.45
2022-12-18T20:58:26.559Z,26.73
2022-12-18T21:01:10.673Z,25.25
2022-12-18T21:03:39.086Z,28.40
2022-12-18T21:06:05.939Z,23.25
2022-12-18T21:08:32.724Z,24.13
2022-12-18T21:11:35.358Z,27.88
2022-12-18T21:14:10.405Z,32.25
2022-12-18T21:16:37.166Z,27.92
2022-12-18T21:19:03.772Z,29.85
2022-12-18T21:21:30.318Z,28.17
2022-12-18T21:24:01.613Z,26.73
2022-12-18T21:26:28.656Z,28.75
2022-12-18T21:28:57.042Z,27.50
2022-12-18T21:31:25.638Z,30.02
2022-12-18T21:33:53.159Z,31.17
2022-12-18T21:36:25.241Z,34.08
2022-12-18T21:38:55.564Z,31.52
2022-12-18T21:41:42.258Z,32.50
2022-12-18T21:44:11.705Z,31.35
2022-12-18T21:46:41.020Z,31.15
2022-12-18T21:49:08.576Z,32.45
2022-12-18T21:51:36.350Z,33.47
2022-12-18T21:54:03.142Z,33.33
2022-12-18T21:56:51.916Z,35.70
2022-12-18T21:59:38.659Z,35.50
2022-12-18T22:02:10.085Z,31.90
2022-12-18T22:04:36.908Z,33.10
2022-12-18T22:07:05.061Z,34.53
2022-12-18T22:09:32.130Z,36.75
2022-12-18T22:11:59.101Z,36.67
2022-12-18T22:14:25.908Z,34.20
2022-12-18T22:16:52.663Z,34.28
2022-12-18T22:19:20.185Z,34.08
2022-12-18T22:21:48.649Z,35.83
2022-12-18T22:24:23.312Z,37.08
2022-12-18T22:26:52.899Z,37.83
2022-12-18T22:29:42.676Z,35.88
2022-12-18T22:32:16.310Z,39.97
2022-12-18T22:34:46.443Z,38.70
2022-12-18T22:37:12.993Z,37.95
2022-12-18T22:39:40.014Z,38.42
2022-12-18T22:42:07.488Z,38.58
2022-12-18T22:44:34.147Z,38.75
2022-12-18T22:47:06.867Z,41.33
2022-12-18T22:49:34.919Z,38.92
2022-12-18T22:52:03.016Z,40.40
2022-12-18T22:54:29.787Z,40.95
2022-12-18T22:56:56.923Z,43.40
2022-12-18T22:59:24.019Z,43.50
2022-12-18T23:01:57.105Z,47.25
2022-12-18T23:04:29.089Z,43.85
2022-12-18T23:07:02.719Z,43.35
2022-12-18T23:09:29.239Z,46.40
2022-12-18T23:11:55.795Z,43.55
2022-12-18T23:14:22.321Z,40.88
2022-12-18T23:16:49.920Z,42.72
2022-12-18T23:19:18.846Z,40.25
2022-12-18T23:21:45.367Z,42.72
2022-12-18T23:24:11.956Z,43.70
2022-12-18T23:26:38.638Z,42.05
2022-12-18T23:29:05.570Z,40.65
2022-12-18T23:31:37.053Z,43.42
2022-12-18T23:34:04.872Z,39.13
2022-12-18T23:36:31.823Z,45.65
2022-12-18T23:39:05.276Z,40.97
2022-12-18T23:41:32.703Z,41.58
2022-12-18T23:44:00.610Z,44.20
2022-12-18T23:46:33.556Z,45.80
2022-12-18T23:49:02.584Z,43.15
2022-12-18T23:51:29.736Z,45.13
2022-12-18T23:53:58.278Z,42.88
2022-12-18T23:56:25.761Z,42.88
2022-12-18T23:58:52.870Z,46.25
